Time;durP1;ratioP1;P1;durP2;ratioP2;P2;SDS_P1;SDS_P2;PMS_P1;PMS_P2;Temp;Humidity;BMP_temperature;BMP_pressure;BME280_temperature;BME280_humidity;BME280_pressure;Samples;Min_cycle;Max_cycle;Signal;HPM_P1;HPM_P2
2022/12/28 00:02:02;;;;;;;;;;;;;;;5.74;94.98;101558.00;5052449;28;19955;-68
2022/12/28 00:04:27;;;;;;;;;;;;;;;5.76;94.83;101550.88;5052640;28;20027;-68
2022/12/28 00:06:53;;;;;;;;;;;;;;;5.72;95.82;101556.31;5050715;28;19905;-67
2022/12/28 00:09:20;;;;;;;;;;;;;;;5.79;95.33;101548.16;5049797;28;19916;-67
2022/12/28 00:11:46;;;;;;;;;;;;;;;5.72;95.68;101543.13;5064200;28;19916;-67
2022/12/28 00:14:11;;;;;;;;;;;;;;;5.81;95.07;101537.56;5087541;28;19919;-68
2022/12/28 00:16:40;;;;;;;;;;;;;;;5.85;94.68;101528.59;5071679;28;19916;-68
2022/12/28 00:19:09;;;;;;;;;;;;;;;5.83;94.93;101512.84;5069532;28;19912;-68
2022/12/28 00:21:34;;;;;;;;;;;;;;;5.90;94.35;101511.72;5068846;28;19977;-68
2022/12/28 00:24:00;;;;;;;;;;;;;;;5.82;94.79;101484.69;5069041;28;19917;-68
2022/12/28 00:26:26;;;;;;;;;;;;;;;5.77;94.76;101481.38;5070347;28;19941;-67
2022/12/28 00:28:52;;;;;;;;;;;;;;;5.79;95.58;101457.53;5071660;28;19915;-67
2022/12/28 00:31:17;;;;;;;;;;;;;;;5.86;94.39;101462.56;5057977;28;19917;-68
2022/12/28 00:33:42;;;;;;;;;;;;;;;5.81;94.81;101464.50;5083740;28;20294;-68
2022/12/28 00:36:10;;;;;;;;;;;;;;;5.85;94.95;101466.16;5050967;28;20449;-68
2022/12/28 00:38:38;;;;;;;;;;;;;;;5.80;95.28;101462.78;5052037;28;19953;-68
2022/12/28 00:41:21;;;;;;;;;;;;;;;5.85;95.36;101478.44;5066402;28;19917;-68
2022/12/28 00:43:47;;;;;;;;;;;;;;;5.86;95.22;101457.31;5035919;28;19915;-68
2022/12/28 00:46:13;;;;;;;;;;;;;;;5.99;94.29;101456.91;5052941;28;20066;-68
2022/12/28 00:48:38;;;;;;;;;;;;;;;5.94;94.67;101453.56;5069318;28;19924;-67
2022/12/28 00:51:07;;;;;;;;;;;;;;;5.96;94.65;101451.75;5048135;28;19920;-68
2022/12/28 00:53:32;;;;;;;;;;;;;;;5.95;95.21;101442.97;5071416;28;19908;-68
2022/12/28 00:56:11;;;;;;;;;;;;;;;5.95;94.70;101431.53;5055706;28;19935;-68
2022/12/28 00:58:37;;;;;;;;;;;;;;;5.94;94.76;101424.50;5072530;28;19916;-68
2022/12/28 01:01:03;;;;;;;;;;;;;;;5.99;94.80;101438.44;5070949;28;20406;-67
2022/12/28 01:03:28;;;;;;;;;;;;;;;6.00;94.75;101434.88;5055985;28;20003;-68
2022/12/28 01:05:54;;;;;;;;;;;;;;;6.02;94.60;101418.06;5072352;28;19912;-68
2022/12/28 01:08:19;;;;;;;;;;;;;;;5.99;94.82;101410.25;5072222;28;20298;-67
2022/12/28 01:10:44;;;;;;;;;;;;;;;6.12;94.16;101415.97;5069809;28;19917;-68
2022/12/28 01:13:10;;;;;;;;;;;;;;;6.02;94.42;101420.69;5073913;28;20332;-67
2022/12/28 01:15:36;;;;;;;;;;;;;;;6.04;94.30;101407.47;5073477;28;19966;-68
2022/12/28 01:18:02;;;;;;;;;;;;;;;6.05;94.60;101412.66;5074617;28;19934;-68
2022/12/28 01:20:27;;;;;;;;;;;;;;;6.01;95.10;101410.19;5074775;28;19912;-68
2022/12/28 01:22:53;;;;;;;;;;;;;;;6.06;94.71;101401.22;5071433;28;19920;-67
2022/12/28 01:25:18;;;;;;;;;;;;;;;6.02;94.88;101407.50;5072662;28;19963;-67
2022/12/28 01:27:43;;;;;;;;;;;;;;;6.17;93.63;101387.59;5089496;28;19923;-67
2022/12/28 01:30:10;;;;;;;;;;;;;;;6.03;95.02;101388.13;5090173;28;19951;-67
2022/12/28 01:32:36;;;;;;;;;;;;;;;6.12;94.25;101384.28;5070460;28;19923;-67
2022/12/28 01:35:01;;;;;;;;;;;;;;;6.10;94.77;101375.56;5054479;28;19909;-67
2022/12/28 01:37:27;;;;;;;;;;;;;;;6.07;94.86;101373.03;5086679;28;19912;-67
2022/12/28 01:39:52;;;;;;;;;;;;;;;6.24;94.57;101375.06;5053366;28;19967;-67
2022/12/28 01:42:18;;;;;;;;;;;;;;;6.21;94.46;101370.75;5067736;28;19921;-67
2022/12/28 01:44:45;;;;;;;;;;;;;;;6.16;94.65;101363.91;5069078;28;19908;-67
2022/12/28 01:47:16;;;;;;;;;;;;;;;6.17;94.52;101366.47;5053883;28;19909;-67
2022/12/28 01:49:54;;;;;;;;;;;;;;;6.19;95.03;101362.00;5059573;28;19916;-67
2022/12/28 01:52:37;;;;;;;;;;;;;;;6.23;94.75;101360.09;5066145;28;19917;-67
2022/12/28 01:55:05;;;;;;;;;;;;;;;6.29;94.84;101360.72;5051526;28;20435;-67
2022/12/28 01:57:33;;;;;;;;;;;;;;;6.35;94.50;101355.25;5054042;28;19915;-67
2022/12/28 02:00:09;;;;;;;;;;;;;;;6.27;94.76;101344.09;5057952;28;19908;-67
2022/12/28 02:02:35;;;;;;;;;;;;;;;6.34;94.48;101335.00;5056953;28;19919;-67
2022/12/28 02:05:00;;;;;;;;;;;;;;;6.31;94.81;101327.22;5052691;28;20299;-67
2022/12/28 02:07:34;;;;;;;;;;;;;;;6.36;94.69;101330.53;5053514;28;19912;-67
2022/12/28 02:09:59;;;;;;;;;;;;;;;6.46;93.85;101311.69;5052016;28;20007;-67
2022/12/28 02:12:24;;;;;;;;;;;;;;;6.40;94.11;101312.78;5063448;28;20323;-67
2022/12/28 02:14:50;;;;;;;;;;;;;;;6.41;94.44;101306.56;5073260;28;19912;-67
2022/12/28 02:17:16;;;;;;;;;;;;;;;6.46;94.44;101298.50;5073064;28;19910;-67
2022/12/28 02:19:45;;;;;;;;;;;;;;;6.46;94.03;101272.91;5089047;28;19995;-67
2022/12/28 02:22:20;;;;;;;;;;;;;;;6.43;94.57;101288.91;5072134;28;19948;-67
2022/12/28 02:24:46;;;;;;;;;;;;;;;6.45;94.86;101276.50;5072703;28;20305;-67
2022/12/28 02:27:24;;;;;;;;;;;;;;;6.56;94.68;101284.88;5073586;28;20367;-67
2022/12/28 02:30:00;;;;;;;;;;;;;;;6.49;95.62;101275.44;5073131;28;20442;-67
2022/12/28 02:32:37;;;;;;;;;;;;;;;6.48;95.66;101260.53;5071012;28;20314;-68
2022/12/28 02:35:03;;;;;;;;;;;;;;;6.53;96.13;101258.56;5071271;28;19912;-67
2022/12/28 02:37:37;;;;;;;;;;;;;;;6.45;97.07;101244.78;5073134;28;19919;-67
2022/12/28 02:40:13;;;;;;;;;;;;;;;6.53;96.38;101262.97;5072657;28;19915;-67
2022/12/28 02:42:39;;;;;;;;;;;;;;;6.51;96.91;101238.41;5071772;28;19908;-67
2022/12/28 02:50:56;;;;;;;;;;;;;;;6.45;98.80;101241.28;5053538;28;19935;-67
2022/12/28 02:53:28;;;;;;;;;;;;;;;6.48;99.18;101238.53;5053938;28;19966;-67
2022/12/28 02:56:06;;;;;;;;;;;;;;;6.37;100.00;101226.59;5052776;28;19963;-67
2022/12/28 02:58:46;;;;;;;;;;;;;;;6.50;99.94;101231.38;5050866;28;19908;-67
2022/12/28 03:01:21;;;;;;;;;;;;;;;6.41;100.00;101219.41;5051609;28;20015;-67
2022/12/28 03:03:55;;;;;;;;;;;;;;;6.39;100.00;101223.03;5052625;28;19909;-67
2022/12/28 03:09:42;;;;;;;;;;;;;;;6.35;100.00;101219.63;5052206;28;19919;-67
2022/12/28 03:12:12;;;;;;;;;;;;;;;6.32;100.00;101228.56;5052495;28;19916;-67
2022/12/28 03:14:52;;;;;;;;;;;;;;;6.34;100.00;101210.00;5065082;28;19966;-67
2022/12/28 03:31:19;;;;;;;;;;;;;;;6.51;100.00;101202.25;5045114;28;19966;-67
2022/12/28 03:33:45;;;;;;;;;;;;;;;6.43;100.00;101196.44;5062961;28;19962;-67
2022/12/28 03:36:37;;;;;;;;;;;;;;;6.37;100.00;101194.03;5066048;28;19938;-67
2022/12/28 03:39:09;;;;;;;;;;;;;;;6.44;100.00;101189.34;5042118;28;19916;-67
2022/12/28 03:41:40;;;;;;;;;;;;;;;6.39;100.00;101183.41;5070678;28;20037;-67
2022/12/28 03:44:11;;;;;;;;;;;;;;;6.37;100.00;101191.38;5063121;28;19917;-67
2022/12/28 03:46:43;;;;;;;;;;;;;;;6.38;100.00;101187.81;5045078;28;19960;-67
2022/12/28 03:49:09;;;;;;;;;;;;;;;6.41;100.00;101181.56;5066411;28;20284;-67
2022/12/28 03:51:37;;;;;;;;;;;;;;;6.40;100.00;101170.13;5072148;28;19916;-67
2022/12/28 03:54:03;;;;;;;;;;;;;;;6.56;100.00;101183.59;5069287;28;19904;-67
2022/12/28 03:56:29;;;;;;;;;;;;;;;6.48;100.00;101175.13;5069109;28;20294;-67
2022/12/28 03:58:54;;;;;;;;;;;;;;;6.46;100.00;101174.31;5070463;28;20375;-67
2022/12/28 04:01:20;;;;;;;;;;;;;;;6.49;100.00;101159.19;5066290;28;19918;-67
2022/12/28 04:03:45;;;;;;;;;;;;;;;6.58;100.00;101165.88;5070605;28;19908;-67
2022/12/28 04:06:12;;;;;;;;;;;;;;;6.64;100.00;101167.41;5055155;28;19916;-67
2022/12/28 04:08:37;;;;;;;;;;;;;;;6.62;100.00;101163.97;5068382;28;20347;-67
2022/12/28 04:11:03;;;;;;;;;;;;;;;6.77;100.00;101160.69;5070372;28;19947;-67
2022/12/28 04:13:29;;;;;;;;;;;;;;;6.71;100.00;101155.66;5099501;28;19974;-67
2022/12/28 04:15:56;;;;;;;;;;;;;;;6.65;100.00;101155.91;5055092;28;19912;-67
2022/12/28 04:18:21;;;;;;;;;;;;;;;6.66;100.00;101158.50;5066632;28;19913;-67
2022/12/28 04:20:46;;;;;;;;;;;;;;;6.71;100.00;101155.66;5071871;28;19943;-67
2022/12/28 04:23:12;;;;;;;;;;;;;;;6.71;100.00;101153.03;5072706;28;19955;-67
2022/12/28 04:25:37;;;;;;;;;;;;;;;6.78;100.00;101157.13;5104850;28;19916;-67
2022/12/28 04:28:03;;;;;;;;;;;;;;;6.81;100.00;101143.78;5036369;28;20012;-67
2022/12/28 04:30:28;;;;;;;;;;;;;;;6.87;100.00;101154.06;5053210;28;19920;-67
2022/12/28 04:32:54;;;;;;;;;;;;;;;6.89;100.00;101156.66;5069317;28;19916;-67
2022/12/28 04:35:20;;;;;;;;;;;;;;;6.97;100.00;101158.06;5074167;28;19923;-67
2022/12/28 04:37:46;;;;;;;;;;;;;;;6.94;100.00;101157.31;5048572;28;19920;-67
2022/12/28 04:40:11;;;;;;;;;;;;;;;6.93;100.00;101152.97;5053662;28;20300;-67
2022/12/28 04:42:39;;;;;;;;;;;;;;;7.12;100.00;101155.66;5054194;28;19912;-67
2022/12/28 04:45:05;;;;;;;;;;;;;;;7.06;100.00;101146.22;5055262;28;19909;-67
2022/12/28 04:47:31;;;;;;;;;;;;;;;7.13;100.00;101157.38;5046631;28;19917;-67
2022/12/28 04:49:56;;;;;;;;;;;;;;;7.25;100.00;101156.84;5072080;28;19921;-67
2022/12/28 04:52:23;;;;;;;;;;;;;;;7.13;100.00;101154.75;5055486;28;19912;-67
2022/12/28 04:54:48;;;;;;;;;;;;;;;7.00;100.00;101146.47;5054645;28;19908;-67
2022/12/28 04:57:14;;;;;;;;;;;;;;;7.03;100.00;101149.88;5054533;28;20026;-67
2022/12/28 04:59:39;;;;;;;;;;;;;;;7.07;100.00;101144.44;5053707;28;19959;-67
2022/12/28 05:02:08;;;;;;;;;;;;;;;7.05;100.00;101153.28;5087425;28;19912;-67
2022/12/28 05:04:34;;;;;;;;;;;;;;;7.01;100.00;101149.06;5053729;28;19920;-67
2022/12/28 05:06:59;;;;;;;;;;;;;;;7.22;100.00;101136.69;5054904;28;20363;-67
2022/12/28 05:09:24;;;;;;;;;;;;;;;7.17;100.00;101148.38;5054491;28;19965;-67
2022/12/28 05:11:49;;;;;;;;;;;;;;;7.10;100.00;101139.00;5055951;28;19944;-67
2022/12/28 05:14:16;;;;;;;;;;;;;;;7.08;100.00;101140.84;5053542;28;19912;-67
2022/12/28 05:16:41;;;;;;;;;;;;;;;7.12;100.00;101137.13;5052541;28;19913;-67
2022/12/28 05:19:06;;;;;;;;;;;;;;;7.11;100.00;101141.56;5052677;28;21023;-67
2022/12/28 05:21:32;;;;;;;;;;;;;;;7.11;100.00;101146.00;5086873;28;20006;-67
2022/12/28 05:23:57;;;;;;;;;;;;;;;7.12;100.00;101142.44;5086290;28;20058;-67
2022/12/28 05:26:24;;;;;;;;;;;;;;;7.19;100.00;101133.31;5050892;28;19931;-67
2022/12/28 05:28:49;;;;;;;;;;;;;;;7.11;100.00;101143.38;5033811;28;19935;-67
2022/12/28 05:31:16;;;;;;;;;;;;;;;7.12;100.00;101130.09;5034421;28;20366;-67
2022/12/28 05:33:42;;;;;;;;;;;;;;;7.13;100.00;101133.59;5045218;28;20012;-67
2022/12/28 05:36:07;;;;;;;;;;;;;;;7.09;100.00;101140.81;5084900;28;19983;-67
2022/12/28 05:38:32;;;;;;;;;;;;;;;7.25;100.00;101120.66;5053958;28;20380;-67
2022/12/28 05:41:05;;;;;;;;;;;;;;;7.11;100.00;101138.94;5086373;28;19921;-67
2022/12/28 05:43:31;;;;;;;;;;;;;;;7.15;100.00;101131.75;5054188;28;19935;-67
2022/12/28 05:46:00;;;;;;;;;;;;;;;7.09;100.00;101134.63;5053321;28;19913;-67
2022/12/28 05:48:28;;;;;;;;;;;;;;;7.21;100.00;101132.31;5053272;28;19909;-67
2022/12/28 05:50:56;;;;;;;;;;;;;;;7.17;100.00;101127.22;5054160;28;19939;-67
2022/12/28 05:53:22;;;;;;;;;;;;;;;7.36;100.00;101130.78;5053601;28;19920;-67
2022/12/28 05:55:47;;;;;;;;;;;;;;;7.22;100.00;101117.31;5051533;28;19913;-67
2022/12/28 05:58:14;;;;;;;;;;;;;;;7.35;100.00;101131.69;5054588;28;19952;-67
2022/12/28 06:00:39;;;;;;;;;;;;;;;7.21;100.00;101134.13;5053745;28;19913;-67
2022/12/28 06:03:04;;;;;;;;;;;;;;;7.19;100.00;101113.00;5086087;28;19909;-67
2022/12/28 06:05:30;;;;;;;;;;;;;;;7.20;100.00;101109.41;5086257;28;19979;-67
2022/12/28 06:07:55;;;;;;;;;;;;;;;7.48;100.00;101116.13;5068453;28;20391;-67
2022/12/28 06:10:21;;;;;;;;;;;;;;;7.24;100.00;101111.03;5065493;28;19917;-67
2022/12/28 06:12:46;;;;;;;;;;;;;;;7.33;100.00;101115.03;5065321;28;19913;-67
2022/12/28 06:15:12;;;;;;;;;;;;;;;7.24;100.00;101104.88;5040220;28;20319;-67
2022/12/28 06:17:37;;;;;;;;;;;;;;;7.25;100.00;101093.34;5053571;28;19916;-67
2022/12/28 06:20:03;;;;;;;;;;;;;;;7.27;100.00;101096.81;5052075;28;19913;-67
2022/12/28 06:22:28;;;;;;;;;;;;;;;7.36;100.00;101091.09;5053477;28;19920;-67
2022/12/28 06:24:53;;;;;;;;;;;;;;;7.32;100.00;101086.84;5085136;28;19912;-67
2022/12/28 06:27:19;;;;;;;;;;;;;;;7.25;100.00;101088.06;5066775;28;19924;-67
2022/12/28 06:29:44;;;;;;;;;;;;;;;7.28;100.00;101080.00;5052826;28;19913;-67
2022/12/28 06:32:10;;;;;;;;;;;;;;;7.36;100.00;101084.94;5053813;28;19943;-67
2022/12/28 06:34:35;;;;;;;;;;;;;;;7.35;100.00;101077.91;5085379;28;20224;-67
2022/12/28 06:37:01;;;;;;;;;;;;;;;7.25;100.00;101069.53;5033315;28;19913;-67
2022/12/28 06:39:27;;;;;;;;;;;;;;;7.43;100.00;101068.69;5065019;28;19913;-68
2022/12/28 06:41:53;;;;;;;;;;;;;;;7.36;100.00;101074.34;5065275;28;20011;-67
2022/12/28 06:44:18;;;;;;;;;;;;;;;7.38;100.00;101059.25;5032878;28;20105;-67
2022/12/28 06:46:43;;;;;;;;;;;;;;;7.47;100.00;101053.53;5066342;28;19917;-67
2022/12/28 06:49:09;;;;;;;;;;;;;;;7.35;100.00;101062.88;5040265;28;19904;-67
2022/12/28 06:51:37;;;;;;;;;;;;;;;7.34;100.00;101053.25;5052198;28;20283;-67
2022/12/28 06:54:05;;;;;;;;;;;;;;;7.38;100.00;101060.13;5050959;28;20023;-67
2022/12/28 06:56:31;;;;;;;;;;;;;;;7.33;100.00;101059.47;5052150;28;19996;-67
2022/12/28 06:58:57;;;;;;;;;;;;;;;7.33;100.00;101056.84;5058328;28;20723;-67
2022/12/28 07:01:23;;;;;;;;;;;;;;;7.48;100.00;101047.31;5062493;28;20015;-67
2022/12/28 07:03:50;;;;;;;;;;;;;;;7.41;100.00;101046.75;5052635;28;20284;-67
2022/12/28 07:06:16;;;;;;;;;;;;;;;7.49;100.00;101060.47;5053911;28;19974;-67
2022/12/28 07:08:42;;;;;;;;;;;;;;;7.52;100.00;101054.16;5052408;28;19908;-67
2022/12/28 07:11:11;;;;;;;;;;;;;;;7.42;100.00;101051.09;5084878;28;19919;-67
2022/12/28 07:13:37;;;;;;;;;;;;;;;7.41;100.00;101054.69;5064749;28;19913;-67
2022/12/28 07:16:03;;;;;;;;;;;;;;;7.47;100.00;101051.75;5087576;28;19916;-67
2022/12/28 07:18:29;;;;;;;;;;;;;;;7.47;100.00;101040.28;5071918;28;20332;-67
2022/12/28 07:21:05;;;;;;;;;;;;;;;7.53;100.00;101041.78;5070980;28;19917;-68
2022/12/28 07:23:30;;;;;;;;;;;;;;;7.45;100.00;101037.72;5070129;28;19913;-67
2022/12/28 07:25:56;;;;;;;;;;;;;;;7.45;100.00;101037.72;5063983;28;20283;-67
2022/12/28 07:28:22;;;;;;;;;;;;;;;7.48;100.00;101034.94;5050608;28;19924;-67
2022/12/28 07:30:48;;;;;;;;;;;;;;;7.53;100.00;101040.03;5052218;28;19912;-67
2022/12/28 07:33:15;;;;;;;;;;;;;;;7.45;100.00;101039.53;5083908;28;20007;-67
2022/12/28 07:35:41;;;;;;;;;;;;;;;7.53;100.00;101032.09;5052110;28;20050;-67
2022/12/28 07:38:06;;;;;;;;;;;;;;;7.61;100.00;101042.28;5051716;28;20406;-67
2022/12/28 07:40:31;;;;;;;;;;;;;;;7.50;100.00;101038.38;5052475;28;19916;-67
2022/12/28 07:42:59;;;;;;;;;;;;;;;7.63;100.00;101043.94;5052554;28;19939;-67
2022/12/28 07:45:24;;;;;;;;;;;;;;;7.54;100.00;101028.50;5050723;28;19912;-67
2022/12/28 07:47:50;;;;;;;;;;;;;;;7.68;100.00;101043.72;5051374;28;19915;-67
2022/12/28 07:50:15;;;;;;;;;;;;;;;7.53;100.00;101049.72;5049237;28;20380;-67
2022/12/28 07:52:41;;;;;;;;;;;;;;;7.55;100.00;101051.38;5059927;28;19917;-67
2022/12/28 07:55:07;;;;;;;;;;;;;;;7.55;100.00;101059.31;5066745;28;19923;-67
2022/12/28 07:57:33;;;;;;;;;;;;;;;7.51;100.00;101049.81;5093377;28;20375;-67
2022/12/28 07:59:58;;;;;;;;;;;;;;;7.54;100.00;101054.97;5051791;28;19912;-67
2022/12/28 08:02:24;;;;;;;;;;;;;;;7.57;100.00;101057.47;5047204;28;20003;-67
2022/12/28 08:04:49;;;;;;;;;;;;;;;7.66;100.00;101050.88;5044986;28;20376;-67
2022/12/28 08:07:14;;;;;;;;;;;;;;;7.79;100.00;101057.28;5065793;28;19916;-67
2022/12/28 08:09:40;;;;;;;;;;;;;;;7.61;100.00;101048.44;5066370;28;19952;-67
2022/12/28 08:12:05;;;;;;;;;;;;;;;7.72;100.00;101040.84;5083048;28;20157;-67
2022/12/28 08:14:31;;;;;;;;;;;;;;;7.67;100.00;101056.09;5083795;28;19959;-67
2022/12/28 08:16:56;;;;;;;;;;;;;;;7.64;100.00;101047.44;5055450;28;19912;-67
2022/12/28 08:19:21;;;;;;;;;;;;;;;7.66;100.00;101051.72;5071399;28;20265;-67
2022/12/28 08:21:47;;;;;;;;;;;;;;;7.62;100.00;101044.03;5068507;28;19916;-65
2022/12/28 08:24:14;;;;;;;;;;;;;;;7.65;100.00;101050.03;5063372;28;19912;-65
2022/12/28 08:26:40;;;;;;;;;;;;;;;7.64;100.00;101039.50;5065592;28;20058;-65
2022/12/28 08:29:07;;;;;;;;;;;;;;;7.83;100.00;101036.84;5071127;28;20002;-65
2022/12/28 08:31:36;;;;;;;;;;;;;;;7.73;100.00;101044.34;5070775;28;19946;-65
2022/12/28 08:34:03;;;;;;;;;;;;;;;7.65;100.00;101057.97;5055914;28;19921;-65
2022/12/28 08:36:28;;;;;;;;;;;;;;;7.79;100.00;101045.84;5050868;28;20295;-65
2022/12/28 08:38:56;;;;;;;;;;;;;;;7.67;100.00;101026.97;5048547;28;19920;-65
2022/12/28 08:41:22;;;;;;;;;;;;;;;7.78;100.00;101049.44;5049531;28;19917;-65
2022/12/28 08:43:47;;;;;;;;;;;;;;;7.71;100.00;101040.94;5052544;28;20409;-65
2022/12/28 08:46:22;;;;;;;;;;;;;;;7.76;100.00;101041.56;5045834;28;19943;-65
2022/12/28 08:48:48;;;;;;;;;;;;;;;7.77;100.00;101043.28;5050165;28;19913;-65
2022/12/28 08:51:18;;;;;;;;;;;;;;;7.82;100.00;101040.41;5052253;28;19916;-65
2022/12/28 08:53:44;;;;;;;;;;;;;;;7.73;100.00;101049.66;5046376;28;19928;-65
2022/12/28 08:56:11;;;;;;;;;;;;;;;7.99;100.00;101042.22;5053240;28;19913;-65
2022/12/28 08:58:36;;;;;;;;;;;;;;;7.84;100.00;101050.00;5052170;28;19916;-65
2022/12/28 09:01:13;;;;;;;;;;;;;;;7.80;100.00;101045.78;5051772;28;19920;-65
2022/12/28 09:03:39;;;;;;;;;;;;;;;7.81;100.00;101046.63;5054264;28;19955;-65
2022/12/28 09:06:06;;;;;;;;;;;;;;;7.80;100.00;101042.28;5052867;28;19912;-65
2022/12/28 09:08:31;;;;;;;;;;;;;;;7.82;100.00;101054.50;5053360;28;20444;-66
2022/12/28 09:11:03;;;;;;;;;;;;;;;7.84;100.00;101047.34;5054103;28;19913;-65
2022/12/28 09:13:28;;;;;;;;;;;;;;;7.88;100.00;101046.28;5052711;28;19916;-65
2022/12/28 09:16:04;;;;;;;;;;;;;;;7.82;100.00;101051.00;5052115;28;20494;-65
2022/12/28 09:18:29;;;;;;;;;;;;;;;8.12;100.00;101040.72;5054872;28;19920;-65
2022/12/28 09:20:55;;;;;;;;;;;;;;;7.91;100.00;101054.06;5051844;28;19912;-65
2022/12/28 09:23:20;;;;;;;;;;;;;;;7.91;100.00;101061.13;5053061;28;19912;-65
2022/12/28 09:25:46;;;;;;;;;;;;;;;7.87;100.00;101049.00;5047400;28;19909;-65
2022/12/28 09:28:12;;;;;;;;;;;;;;;7.86;100.00;101052.59;5060272;28;19921;-65
2022/12/28 09:30:37;;;;;;;;;;;;;;;8.01;100.00;101058.91;5053627;28;20011;-65
2022/12/28 09:35:47;;;;;;;;;;;;;;;7.91;100.00;101043.47;5062376;28;19919;-65
2022/12/28 09:38:12;;;;;;;;;;;;;;;7.95;100.00;101050.34;5057941;28;19916;-65
2022/12/28 09:40:37;;;;;;;;;;;;;;;8.07;100.00;101034.78;5087851;28;20015;-65
2022/12/28 09:43:04;;;;;;;;;;;;;;;8.00;100.00;101043.94;5068077;28;20011;-65
2022/12/28 09:45:31;;;;;;;;;;;;;;;8.16;100.00;101043.09;5051413;28;20295;-66
2022/12/28 09:48:04;;;;;;;;;;;;;;;7.98;100.00;101046.69;5049571;28;20334;-65
2022/12/28 09:50:34;;;;;;;;;;;;;;;8.04;100.00;101034.94;5053525;28;20244;-65
2022/12/28 09:53:05;;;;;;;;;;;;;;;8.08;100.00;101033.84;5054627;28;20383;-65
2022/12/28 09:55:35;;;;;;;;;;;;;;;8.03;100.00;101028.78;5051819;28;19919;-65
2022/12/28 09:58:01;;;;;;;;;;;;;;;8.02;100.00;101035.00;5058846;28;19913;-66
2022/12/28 10:00:36;;;;;;;;;;;;;;;8.04;100.00;101032.28;5053146;28;19917;-65
2022/12/28 10:03:10;;;;;;;;;;;;;;;8.04;100.00;101043.72;5055202;28;19912;-66
2022/12/28 10:05:36;;;;;;;;;;;;;;;8.10;100.00;101050.50;5037560;28;19909;-65
2022/12/28 10:08:01;;;;;;;;;;;;;;;8.05;100.00;101036.63;5085390;28;19920;-65
2022/12/28 10:10:28;;;;;;;;;;;;;;;8.13;100.00;101037.97;5052254;28;19916;-65
2022/12/28 10:12:53;;;;;;;;;;;;;;;8.05;100.00;101037.47;5052386;28;20280;-65
2022/12/28 10:15:21;;;;;;;;;;;;;;;8.01;100.00;101029.78;5051716;28;19963;-66
2022/12/28 10:17:46;;;;;;;;;;;;;;;8.14;100.00;101025.56;5053072;28;19954;-65
2022/12/28 10:20:20;;;;;;;;;;;;;;;8.07;100.00;101022.38;5052587;28;20003;-65
2022/12/28 10:22:49;;;;;;;;;;;;;;;8.08;100.00;101029.38;5060377;28;19949;-66
2022/12/28 10:25:15;;;;;;;;;;;;;;;8.10;100.00;101019.56;5053084;28;20066;-65
2022/12/28 10:27:41;;;;;;;;;;;;;;;8.08;100.00;101023.22;5052644;28;19916;-65
2022/12/28 10:30:14;;;;;;;;;;;;;;;8.07;100.00;101021.53;5051078;28;19943;-65
2022/12/28 10:32:50;;;;;;;;;;;;;;;8.09;100.00;101014.34;5044739;28;19921;-65
2022/12/28 10:35:26;;;;;;;;;;;;;;;8.15;100.00;101016.72;5052150;28;20379;-66
2022/12/28 10:37:57;;;;;;;;;;;;;;;8.18;100.00;101011.25;5044717;28;20284;-65
2022/12/28 10:40:27;;;;;;;;;;;;;;;8.10;100.00;101010.78;5042366;28;19919;-65
2022/12/28 10:42:59;;;;;;;;;;;;;;;8.14;100.00;101007.88;5052197;28;20319;-65
2022/12/28 10:45:32;;;;;;;;;;;;;;;8.13;100.00;101011.47;5061564;28;19951;-65
2022/12/28 10:47:57;;;;;;;;;;;;;;;8.10;100.00;101016.06;5052804;28;20268;-65
2022/12/28 10:50:40;;;;;;;;;;;;;;;8.11;100.00;101010.69;5051606;28;19923;-65
2022/12/28 10:53:27;;;;;;;;;;;;;;;8.22;100.00;101006.66;5053264;28;20191;-66
2022/12/28 10:56:08;;;;;;;;;;;;;;;8.30;100.00;101002.69;5063562;28;19956;-65
2022/12/28 10:58:33;;;;;;;;;;;;;;;8.15;100.00;100999.03;5043176;28;20253;-65
2022/12/28 11:01:01;;;;;;;;;;;;;;;8.23;100.00;100997.75;5047177;28;19920;-65
2022/12/28 11:03:34;;;;;;;;;;;;;;;8.37;100.00;100993.47;5049599;28;19943;-66
2022/12/28 11:06:06;;;;;;;;;;;;;;;8.33;100.00;100991.06;5051351;28;20368;-66
2022/12/28 11:08:32;;;;;;;;;;;;;;;8.24;100.00;101005.66;5049418;28;20333;-66
2022/12/28 11:10:57;;;;;;;;;;;;;;;8.17;100.00;100989.19;5069041;28;19928;-66
2022/12/28 11:13:22;;;;;;;;;;;;;;;8.23;100.00;100998.59;5059438;28;19916;-66
2022/12/28 11:15:50;;;;;;;;;;;;;;;8.17;100.00;100991.84;5084047;28;19923;-66
2022/12/28 11:18:16;;;;;;;;;;;;;;;8.27;100.00;100991.38;5054303;28;19961;-66
2022/12/28 11:20:44;;;;;;;;;;;;;;;8.25;100.00;100975.56;5061938;28;20444;-65
2022/12/28 11:23:21;;;;;;;;;;;;;;;8.30;100.00;100978.84;5062567;28;19916;-66
2022/12/28 11:25:46;;;;;;;;;;;;;;;8.30;100.00;100975.34;5065731;28;19913;-66
2022/12/28 11:28:15;;;;;;;;;;;;;;;8.30;100.00;100976.19;5072021;28;19916;-66
2022/12/28 11:30:40;;;;;;;;;;;;;;;8.26;100.00;100966.66;5070198;28;19912;-66
2022/12/28 11:33:08;;;;;;;;;;;;;;;8.27;100.00;100964.88;5058946;28;20058;-66
2022/12/28 11:35:37;;;;;;;;;;;;;;;8.33;100.00;100956.63;5052312;28;19912;-66
2022/12/28 11:38:04;;;;;;;;;;;;;;;8.43;100.00;100952.56;5054263;28;19913;-66
2022/12/28 11:40:51;;;;;;;;;;;;;;;8.39;100.00;100946.59;5065884;28;19913;-66
2022/12/28 11:43:25;;;;;;;;;;;;;;;8.35;100.00;100942.34;5065318;28;19912;-67
2022/12/28 11:45:51;;;;;;;;;;;;;;;8.33;100.00;100936.28;5051823;28;20324;-66
2022/12/28 11:48:40;;;;;;;;;;;;;;;8.35;100.00;100931.75;5051594;28;20356;-67
2022/12/28 11:51:13;;;;;;;;;;;;;;;8.38;100.00;100930.72;5055574;28;19916;-66
2022/12/28 11:53:45;;;;;;;;;;;;;;;8.38;100.00;100926.34;5049373;28;19913;-66
2022/12/28 11:56:15;;;;;;;;;;;;;;;8.36;100.00;100922.88;5065595;28;20397;-66
2022/12/28 11:58:41;;;;;;;;;;;;;;;8.49;100.00;100904.53;5071488;28;20002;-66
2022/12/28 12:01:24;;;;;;;;;;;;;;;8.35;100.00;100923.81;5058276;28;20059;-66
2022/12/28 12:03:55;;;;;;;;;;;;;;;8.42;100.00;100908.47;5051300;28;19912;-66
2022/12/28 12:06:44;;;;;;;;;;;;;;;8.33;100.00;100914.22;5051810;28;19953;-65
2022/12/28 12:09:24;;;;;;;;;;;;;;;8.38;100.00;100907.78;5047581;28;20329;-66
2022/12/28 12:12:12;;;;;;;;;;;;;;;8.34;100.00;100900.03;5044861;28;19966;-66
2022/12/28 12:14:51;;;;;;;;;;;;;;;8.34;100.00;100895.56;5044920;28;19913;-66
2022/12/28 12:17:40;;;;;;;;;;;;;;;8.34;100.00;100895.56;5050312;28;20388;-66
2022/12/28 12:20:16;;;;;;;;;;;;;;;8.39;100.00;100901.53;5049331;28;19959;-66
2022/12/28 12:23:08;;;;;;;;;;;;;;;8.39;100.00;100879.47;5049642;28;19908;-66
2022/12/28 12:25:33;;;;;;;;;;;;;;;8.36;100.00;100891.06;5047387;28;19912;-66
2022/12/28 12:28:06;;;;;;;;;;;;;;;8.39;100.00;100879.47;5045876;28;19986;-66
2022/12/28 12:30:31;;;;;;;;;;;;;;;8.37;100.00;100868.06;5027945;28;19920;-66
2022/12/28 12:33:11;;;;;;;;;;;;;;;8.33;100.00;100864.72;5047394;28;19920;-66
2022/12/28 12:35:45;;;;;;;;;;;;;;;8.33;100.00;100859.44;5052183;28;19916;-66
2022/12/28 12:38:29;;;;;;;;;;;;;;;8.37;100.00;100862.75;5049357;28;19920;-66
2022/12/28 12:41:13;;;;;;;;;;;;;;;8.38;100.00;100856.50;5043485;28;19909;-65
2022/12/28 12:43:45;;;;;;;;;;;;;;;8.37;100.00;100846.84;5053644;28;19920;-66
2022/12/28 12:46:28;;;;;;;;;;;;;;;8.53;100.00;100836.31;5074906;28;19908;-66
2022/12/28 12:49:03;;;;;;;;;;;;;;;8.43;100.00;100829.81;5067215;28;20004;-66
2022/12/28 12:51:28;;;;;;;;;;;;;;;8.54;100.00;100838.88;5054893;28;20299;-66
2022/12/28 12:53:56;;;;;;;;;;;;;;;8.48;100.00;100817.16;5054898;28;19909;-66
2022/12/28 12:56:21;;;;;;;;;;;;;;;8.52;100.00;100816.91;5053304;28;20265;-66
2022/12/28 12:58:56;;;;;;;;;;;;;;;8.57;100.00;100809.56;5070434;28;19924;-66
2022/12/28 13:01:29;;;;;;;;;;;;;;;8.52;100.00;100806.28;5072653;28;20371;-66
2022/12/28 13:03:56;;;;;;;;;;;;;;;8.53;100.00;100801.84;5051525;28;19959;-66
2022/12/28 13:06:23;;;;;;;;;;;;;;;8.50;100.00;100802.00;5054089;28;19912;-65
2022/12/28 13:08:48;;;;;;;;;;;;;;;8.51;100.00;100794.00;5054384;28;19912;-66
2022/12/28 13:11:15;;;;;;;;;;;;;;;8.58;100.00;100799.81;5054883;28;19966;-66